TimeMST,TemperatureF,Dew PointF,Humidity,Sea Level PressureIn,VisibilityMPH,Wind Direction,Wind SpeedMPH,Gust SpeedMPH,PrecipitationIn,Events,Conditions,WindDirDegrees,DateUTC
12:51 AM,19.0,12.9,77,29.89,10.0,West,9.2,-,N/A,,Clear,260,2012-12-11 07:51:00
1:51 AM,18.0,12.0,78,29.88,10.0,WNW,4.6,-,N/A,,Overcast,290,2012-12-11 08:51:00
2:51 AM,16.0,10.0,77,29.88,10.0,West,9.2,-,N/A,,Partly Cloudy,280,2012-12-11 09:51:00
3:51 AM,18.0,12.0,78,29.88,10.0,West,9.2,-,N/A,,Mostly Cloudy,270,2012-12-11 10:51:00
4:51 AM,19.0,14.0,81,29.87,10.0,Calm,Calm,-,N/A,,Overcast,0,2012-12-11 11:51:00
5:51 AM,19.9,14.0,78,29.86,10.0,WSW,9.2,-,N/A,,Mostly Cloudy,240,2012-12-11 12:51:00
6:51 AM,18.0,12.0,78,29.85,10.0,Calm,Calm,-,N/A,,Clear,0,2012-12-11 13:51:00
7:51 AM,19.9,12.0,71,29.82,10.0,SW,11.5,-,N/A,,Clear,220,2012-12-11 14:51:00
8:51 AM,23.0,12.9,65,29.81,10.0,SW,9.2,-,N/A,,Clear,230,2012-12-11 15:51:00
9:51 AM,28.0,16.0,61,29.79,10.0,SW,13.8,-,N/A,,Clear,230,2012-12-11 16:51:00
10:51 AM,-9999,-9999,N/A,29.67,-9999.0,North,-9999.0,-,N/A,,Clear,0,2012-12-11 17:51:00
11:51 AM,30.9,18.0,59,29.73,10.0,WSW,3.5,-,N/A,,Clear,240,2012-12-11 18:51:00
12:51 PM,33.1,19.0,56,29.70,10.0,SW,6.9,-,N/A,,Scattered Clouds,220,2012-12-11 19:51:00
1:51 PM,33.1,19.0,56,29.68,10.0,SSW,9.2,-,N/A,,Overcast,200,2012-12-11 20:51:00
2:51 PM,33.1,21.0,61,29.65,10.0,South,10.4,-,N/A,,Overcast,180,2012-12-11 21:51:00
3:51 PM,34.0,19.9,56,29.65,10.0,SSW,9.2,-,N/A,,Overcast,210,2012-12-11 22:51:00
4:51 PM,30.9,19.9,64,29.62,10.0,South,10.4,-,N/A,,Overcast,170,2012-12-11 23:51:00
5:51 PM,28.9,19.0,67,29.61,10.0,South,12.7,-,N/A,,Clear,180,2012-12-12 00:51:00
6:51 PM,34.0,19.9,56,29.60,10.0,SSW,12.7,-,N/A,,Overcast,200,2012-12-12 01:51:00
7:51 PM,35.1,21.0,57,29.60,10.0,WSW,9.2,-,N/A,,Overcast,240,2012-12-12 02:51:00
9:51 PM,35.1,21.9,59,29.58,10.0,WSW,10.4,-,N/A,,Overcast,250,2012-12-12 04:51:00
10:51 PM,34.0,21.9,61,29.53,10.0,West,8.1,-,N/A,,Mostly Cloudy,270,2012-12-12 05:51:00
11:51 PM,33.1,21.9,64,29.60,10.0,Calm,Calm,-,N/A,,Overcast,0,2012-12-12 06:51:00